sensor_id;sensor_type;location;lat;lon;timestamp;P1;durP1;ratioP1;P2;durP2;ratioP2
39882;SDS011;55824;52.220;21.040;2023-08-06T00:01:57;6.43;;;3.85;;
39882;SDS011;55824;52.220;21.040;2023-08-06T00:04:23;7.25;;;4.38;;
39882;SDS011;55824;52.220;21.040;2023-08-06T00:06:49;7.85;;;4.30;;
39882;SDS011;55824;52.220;21.040;2023-08-06T00:09:15;6.95;;;4.43;;
39882;SDS011;55824;52.220;21.040;2023-08-06T00:11:41;6.40;;;3.83;;
39882;SDS011;55824;52.220;21.040;2023-08-06T00:14:08;6.60;;;4.18;;
39882;SDS011;55824;52.220;21.040;2023-08-06T00:16:34;5.68;;;3.95;;
39882;SDS011;55824;52.220;21.040;2023-08-06T00:19:00;8.40;;;4.60;;
39882;SDS011;55824;52.220;21.040;2023-08-06T00:21:27;6.50;;;4.15;;
39882;SDS011;55824;52.220;21.040;2023-08-06T00:23:53;6.65;;;4.35;;
39882;SDS011;55824;52.220;21.040;2023-08-06T00:26:19;6.25;;;4.20;;
39882;SDS011;55824;52.220;21.040;2023-08-06T00:28:45;7.85;;;4.38;;
39882;SDS011;55824;52.220;21.040;2023-08-06T00:31:11;6.53;;;3.75;;
39882;SDS011;55824;52.220;21.040;2023-08-06T00:33:37;6.03;;;4.28;;
39882;SDS011;55824;52.220;21.040;2023-08-06T00:36:03;7.32;;;4.22;;
39882;SDS011;55824;52.220;21.040;2023-08-06T00:38:29;5.63;;;3.58;;
39882;SDS011;55824;52.220;21.040;2023-08-06T00:40:55;5.50;;;3.78;;
39882;SDS011;55824;52.220;21.040;2023-08-06T00:43:21;6.10;;;3.90;;
39882;SDS011;55824;52.220;21.040;2023-08-06T00:45:46;5.60;;;3.85;;
39882;SDS011;55824;52.220;21.040;2023-08-06T00:48:13;6.05;;;4.03;;
39882;SDS011;55824;52.220;21.040;2023-08-06T00:50:39;5.68;;;4.18;;
39882;SDS011;55824;52.220;21.040;2023-08-06T00:53:05;7.03;;;4.07;;
39882;SDS011;55824;52.220;21.040;2023-08-06T00:55:31;6.45;;;4.60;;
39882;SDS011;55824;52.220;21.040;2023-08-06T00:57:58;5.47;;;3.63;;
39882;SDS011;55824;52.220;21.040;2023-08-06T01:00:24;6.95;;;3.85;;
39882;SDS011;55824;52.220;21.040;2023-08-06T01:02:51;5.90;;;4.00;;
39882;SDS011;55824;52.220;21.040;2023-08-06T01:05:17;8.00;;;4.03;;
39882;SDS011;55824;52.220;21.040;2023-08-06T01:13:09;5.38;;;3.88;;
39882;SDS011;55824;52.220;21.040;2023-08-06T01:15:47;5.05;;;3.53;;
39882;SDS011;55824;52.220;21.040;2023-08-06T01:18:15;5.70;;;3.35;;
39882;SDS011;55824;52.220;21.040;2023-08-06T01:20:41;4.55;;;3.30;;
39882;SDS011;55824;52.220;21.040;2023-08-06T01:23:07;5.57;;;3.80;;
39882;SDS011;55824;52.220;21.040;2023-08-06T01:25:33;4.45;;;3.20;;
39882;SDS011;55824;52.220;21.040;2023-08-06T01:28:23;7.10;;;3.55;;
39882;SDS011;55824;52.220;21.040;2023-08-06T01:30:46;5.82;;;3.88;;
39882;SDS011;55824;52.220;21.040;2023-08-06T01:33:14;5.63;;;3.67;;
39882;SDS011;55824;52.220;21.040;2023-08-06T01:35:42;5.30;;;3.55;;
39882;SDS011;55824;52.220;21.040;2023-08-06T01:38:08;6.22;;;3.55;;
39882;SDS011;55824;52.220;21.040;2023-08-06T01:40:34;5.78;;;3.63;;
39882;SDS011;55824;52.220;21.040;2023-08-06T01:43:00;5.22;;;3.97;;
39882;SDS011;55824;52.220;21.040;2023-08-06T01:45:26;4.57;;;3.40;;
39882;SDS011;55824;52.220;21.040;2023-08-06T01:47:52;4.80;;;3.40;;
39882;SDS011;55824;52.220;21.040;2023-08-06T01:50:18;4.90;;;3.58;;
39882;SDS011;55824;52.220;21.040;2023-08-06T01:52:44;5.00;;;3.38;;
39882;SDS011;55824;52.220;21.040;2023-08-06T01:55:10;5.07;;;3.35;;
39882;SDS011;55824;52.220;21.040;2023-08-06T01:57:36;5.00;;;3.45;;
39882;SDS011;55824;52.220;21.040;2023-08-06T02:00:02;5.50;;;3.25;;
39882;SDS011;55824;52.220;21.040;2023-08-06T02:02:28;4.45;;;3.40;;
39882;SDS011;55824;52.220;21.040;2023-08-06T02:04:54;5.55;;;3.60;;
39882;SDS011;55824;52.220;21.040;2023-08-06T02:07:20;4.88;;;3.33;;
39882;SDS011;55824;52.220;21.040;2023-08-06T02:09:46;4.72;;;3.20;;
39882;SDS011;55824;52.220;21.040;2023-08-06T02:12:12;4.97;;;3.30;;
39882;SDS011;55824;52.220;21.040;2023-08-06T02:14:38;5.50;;;3.38;;
39882;SDS011;55824;52.220;21.040;2023-08-06T02:17:04;5.50;;;3.50;;
39882;SDS011;55824;52.220;21.040;2023-08-06T02:19:30;4.30;;;2.80;;
39882;SDS011;55824;52.220;21.040;2023-08-06T02:21:56;4.30;;;2.80;;
39882;SDS011;55824;52.220;21.040;2023-08-06T02:24:22;4.68;;;3.05;;
39882;SDS011;55824;52.220;21.040;2023-08-06T02:26:48;5.05;;;3.03;;
39882;SDS011;55824;52.220;21.040;2023-08-06T02:29:16;4.80;;;3.10;;
39882;SDS011;55824;52.220;21.040;2023-08-06T02:31:42;5.40;;;3.70;;
39882;SDS011;55824;52.220;21.040;2023-08-06T02:34:07;4.80;;;2.80;;
39882;SDS011;55824;52.220;21.040;2023-08-06T02:36:33;4.57;;;3.08;;
39882;SDS011;55824;52.220;21.040;2023-08-06T02:38:59;4.40;;;3.30;;
39882;SDS011;55824;52.220;21.040;2023-08-06T02:41:25;4.18;;;3.15;;
39882;SDS011;55824;52.220;21.040;2023-08-06T02:43:52;4.82;;;3.00;;
39882;SDS011;55824;52.220;21.040;2023-08-06T02:46:18;4.32;;;2.75;;
39882;SDS011;55824;52.220;21.040;2023-08-06T02:48:44;5.07;;;2.97;;
39882;SDS011;55824;52.220;21.040;2023-08-06T02:51:10;4.97;;;3.40;;
39882;SDS011;55824;52.220;21.040;2023-08-06T02:53:36;4.35;;;3.13;;
39882;SDS011;55824;52.220;21.040;2023-08-06T02:56:02;6.35;;;3.13;;
39882;SDS011;55824;52.220;21.040;2023-08-06T02:58:28;5.15;;;3.33;;
39882;SDS011;55824;52.220;21.040;2023-08-06T03:01:01;3.63;;;2.60;;
39882;SDS011;55824;52.220;21.040;2023-08-06T03:03:28;4.30;;;3.00;;
39882;SDS011;55824;52.220;21.040;2023-08-06T03:05:54;3.78;;;3.17;;
39882;SDS011;55824;52.220;21.040;2023-08-06T03:08:20;3.92;;;3.15;;
39882;SDS011;55824;52.220;21.040;2023-08-06T03:10:47;4.25;;;3.13;;
39882;SDS011;55824;52.220;21.040;2023-08-06T03:13:13;3.63;;;2.88;;
39882;SDS011;55824;52.220;21.040;2023-08-06T03:15:39;3.72;;;2.95;;
39882;SDS011;55824;52.220;21.040;2023-08-06T03:18:05;5.05;;;3.10;;
39882;SDS011;55824;52.220;21.040;2023-08-06T03:20:32;6.75;;;3.20;;
39882;SDS011;55824;52.220;21.040;2023-08-06T03:22:58;4.20;;;2.95;;
39882;SDS011;55824;52.220;21.040;2023-08-06T03:25:24;4.43;;;3.10;;
39882;SDS011;55824;52.220;21.040;2023-08-06T03:27:50;4.47;;;3.20;;
39882;SDS011;55824;52.220;21.040;2023-08-06T03:30:15;4.82;;;3.33;;
39882;SDS011;55824;52.220;21.040;2023-08-06T03:32:41;5.03;;;3.33;;
39882;SDS011;55824;52.220;21.040;2023-08-06T03:35:07;5.80;;;3.17;;
39882;SDS011;55824;52.220;21.040;2023-08-06T03:37:33;4.65;;;3.30;;
39882;SDS011;55824;52.220;21.040;2023-08-06T03:39:59;4.72;;;3.45;;
39882;SDS011;55824;52.220;21.040;2023-08-06T03:42:25;4.53;;;3.33;;
39882;SDS011;55824;52.220;21.040;2023-08-06T03:44:51;5.63;;;3.45;;
39882;SDS011;55824;52.220;21.040;2023-08-06T03:47:17;5.38;;;3.85;;
39882;SDS011;55824;52.220;21.040;2023-08-06T03:49:43;4.35;;;3.28;;
39882;SDS011;55824;52.220;21.040;2023-08-06T03:52:09;4.70;;;3.75;;
39882;SDS011;55824;52.220;21.040;2023-08-06T03:54:35;5.28;;;3.58;;
39882;SDS011;55824;52.220;21.040;2023-08-06T03:57:01;4.68;;;3.50;;
39882;SDS011;55824;52.220;21.040;2023-08-06T03:59:27;4.80;;;3.55;;
39882;SDS011;55824;52.220;21.040;2023-08-06T04:01:53;5.78;;;3.55;;
39882;SDS011;55824;52.220;21.040;2023-08-06T04:04:19;5.55;;;3.63;;
39882;SDS011;55824;52.220;21.040;2023-08-06T04:06:45;5.18;;;3.42;;
39882;SDS011;55824;52.220;21.040;2023-08-06T04:09:11;5.45;;;3.78;;
39882;SDS011;55824;52.220;21.040;2023-08-06T04:11:38;4.75;;;3.38;;
39882;SDS011;55824;52.220;21.040;2023-08-06T04:14:04;5.70;;;3.83;;
39882;SDS011;55824;52.220;21.040;2023-08-06T04:16:30;5.53;;;3.50;;
39882;SDS011;55824;52.220;21.040;2023-08-06T04:18:56;5.45;;;3.83;;
39882;SDS011;55824;52.220;21.040;2023-08-06T04:21:23;5.57;;;3.88;;
39882;SDS011;55824;52.220;21.040;2023-08-06T04:23:49;5.60;;;4.22;;
39882;SDS011;55824;52.220;21.040;2023-08-06T04:26:15;5.45;;;4.28;;
39882;SDS011;55824;52.220;21.040;2023-08-06T04:28:41;7.65;;;4.03;;
39882;SDS011;55824;52.220;21.040;2023-08-06T04:31:07;5.30;;;4.35;;
39882;SDS011;55824;52.220;21.040;2023-08-06T04:33:33;5.68;;;4.45;;
39882;SDS011;55824;52.220;21.040;2023-08-06T04:35:59;5.07;;;3.67;;
39882;SDS011;55824;52.220;21.040;2023-08-06T04:38:25;5.13;;;3.72;;
39882;SDS011;55824;52.220;21.040;2023-08-06T04:40:52;4.45;;;3.45;;
39882;SDS011;55824;52.220;21.040;2023-08-06T04:43:18;5.15;;;4.05;;
39882;SDS011;55824;52.220;21.040;2023-08-06T04:45:48;5.35;;;3.30;;
39882;SDS011;55824;52.220;21.040;2023-08-06T04:48:14;5.53;;;4.22;;
39882;SDS011;55824;52.220;21.040;2023-08-06T04:50:44;4.95;;;3.63;;
39882;SDS011;55824;52.220;21.040;2023-08-06T04:55:36;7.75;;;3.97;;
39882;SDS011;55824;52.220;21.040;2023-08-06T04:58:02;6.00;;;3.92;;
39882;SDS011;55824;52.220;21.040;2023-08-06T05:00:28;6.30;;;4.10;;
39882;SDS011;55824;52.220;21.040;2023-08-06T05:02:54;5.63;;;3.85;;
39882;SDS011;55824;52.220;21.040;2023-08-06T05:05:20;5.32;;;4.05;;
39882;SDS011;55824;52.220;21.040;2023-08-06T05:07:48;4.88;;;3.72;;
39882;SDS011;55824;52.220;21.040;2023-08-06T05:10:14;5.85;;;3.97;;
39882;SDS011;55824;52.220;21.040;2023-08-06T05:12:40;5.20;;;3.83;;
39882;SDS011;55824;52.220;21.040;2023-08-06T05:15:06;4.20;;;3.33;;
39882;SDS011;55824;52.220;21.040;2023-08-06T05:17:32;5.25;;;3.60;;
39882;SDS011;55824;52.220;21.040;2023-08-06T05:19:59;5.10;;;3.70;;
39882;SDS011;55824;52.220;21.040;2023-08-06T05:22:25;5.00;;;4.15;;
39882;SDS011;55824;52.220;21.040;2023-08-06T05:24:51;5.65;;;3.70;;
39882;SDS011;55824;52.220;21.040;2023-08-06T05:27:17;6.45;;;4.40;;
39882;SDS011;55824;52.220;21.040;2023-08-06T05:29:44;4.20;;;3.50;;
39882;SDS011;55824;52.220;21.040;2023-08-06T05:32:10;4.70;;;3.97;;
39882;SDS011;55824;52.220;21.040;2023-08-06T05:34:36;4.72;;;3.70;;
39882;SDS011;55824;52.220;21.040;2023-08-06T05:37:02;4.55;;;3.63;;
39882;SDS011;55824;52.220;21.040;2023-08-06T05:39:28;5.50;;;4.00;;
39882;SDS011;55824;52.220;21.040;2023-08-06T05:41:54;6.65;;;3.80;;
39882;SDS011;55824;52.220;21.040;2023-08-06T05:44:21;4.70;;;3.97;;
39882;SDS011;55824;52.220;21.040;2023-08-06T05:46:47;4.82;;;4.20;;
39882;SDS011;55824;52.220;21.040;2023-08-06T05:49:13;5.00;;;3.97;;
39882;SDS011;55824;52.220;21.040;2023-08-06T05:51:39;5.55;;;4.18;;
39882;SDS011;55824;52.220;21.040;2023-08-06T05:54:05;6.55;;;4.55;;
39882;SDS011;55824;52.220;21.040;2023-08-06T05:56:31;5.40;;;4.03;;
39882;SDS011;55824;52.220;21.040;2023-08-06T05:58:57;5.00;;;3.80;;
39882;SDS011;55824;52.220;21.040;2023-08-06T06:01:23;4.85;;;4.15;;
39882;SDS011;55824;52.220;21.040;2023-08-06T06:03:49;4.90;;;4.10;;
39882;SDS011;55824;52.220;21.040;2023-08-06T06:06:15;5.22;;;3.78;;
39882;SDS011;55824;52.220;21.040;2023-08-06T06:08:42;5.35;;;4.50;;
39882;SDS011;55824;52.220;21.040;2023-08-06T06:11:08;4.80;;;3.97;;
39882;SDS011;55824;52.220;21.040;2023-08-06T06:13:34;5.47;;;4.15;;
39882;SDS011;55824;52.220;21.040;2023-08-06T06:16:00;5.13;;;3.90;;
39882;SDS011;55824;52.220;21.040;2023-08-06T06:18:26;4.95;;;4.00;;
39882;SDS011;55824;52.220;21.040;2023-08-06T06:20:52;5.35;;;3.83;;
39882;SDS011;55824;52.220;21.040;2023-08-06T06:23:18;5.20;;;3.45;;
39882;SDS011;55824;52.220;21.040;2023-08-06T06:25:47;5.22;;;3.85;;
39882;SDS011;55824;52.220;21.040;2023-08-06T06:28:13;5.80;;;3.58;;
39882;SDS011;55824;52.220;21.040;2023-08-06T06:30:40;4.80;;;3.63;;
39882;SDS011;55824;52.220;21.040;2023-08-06T06:33:06;6.72;;;3.88;;
39882;SDS011;55824;52.220;21.040;2023-08-06T06:35:32;4.90;;;3.75;;
39882;SDS011;55824;52.220;21.040;2023-08-06T06:37:58;4.57;;;3.42;;
39882;SDS011;55824;52.220;21.040;2023-08-06T06:40:24;4.75;;;3.50;;
39882;SDS011;55824;52.220;21.040;2023-08-06T06:42:50;6.88;;;3.35;;
39882;SDS011;55824;52.220;21.040;2023-08-06T06:45:16;5.25;;;3.83;;
39882;SDS011;55824;52.220;21.040;2023-08-06T06:47:43;4.68;;;3.63;;
39882;SDS011;55824;52.220;21.040;2023-08-06T06:50:09;5.00;;;3.95;;
39882;SDS011;55824;52.220;21.040;2023-08-06T06:52:35;6.00;;;4.20;;
39882;SDS011;55824;52.220;21.040;2023-08-06T06:55:01;5.97;;;3.65;;
39882;SDS011;55824;52.220;21.040;2023-08-06T06:57:27;4.82;;;3.72;;
39882;SDS011;55824;52.220;21.040;2023-08-06T06:59:53;5.38;;;3.90;;
39882;SDS011;55824;52.220;21.040;2023-08-06T07:02:19;6.00;;;3.65;;
39882;SDS011;55824;52.220;21.040;2023-08-06T07:04:45;6.13;;;3.67;;
39882;SDS011;55824;52.220;21.040;2023-08-06T07:07:10;5.80;;;4.18;;
39882;SDS011;55824;52.220;21.040;2023-08-06T07:09:36;4.82;;;3.47;;
39882;SDS011;55824;52.220;21.040;2023-08-06T07:12:03;4.95;;;3.90;;
39882;SDS011;55824;52.220;21.040;2023-08-06T07:14:29;4.97;;;3.88;;
39882;SDS011;55824;52.220;21.040;2023-08-06T07:16:54;5.80;;;4.82;;
39882;SDS011;55824;52.220;21.040;2023-08-06T07:19:20;4.57;;;3.92;;
39882;SDS011;55824;52.220;21.040;2023-08-06T07:21:46;5.68;;;3.90;;
39882;SDS011;55824;52.220;21.040;2023-08-06T07:24:12;5.65;;;4.20;;
39882;SDS011;55824;52.220;21.040;2023-08-06T07:26:38;7.38;;;4.25;;
39882;SDS011;55824;52.220;21.040;2023-08-06T07:29:04;5.38;;;4.28;;
39882;SDS011;55824;52.220;21.040;2023-08-06T07:31:30;5.22;;;3.65;;
39882;SDS011;55824;52.220;21.040;2023-08-06T07:33:56;6.82;;;4.35;;
39882;SDS011;55824;52.220;21.040;2023-08-06T07:36:22;5.63;;;4.45;;
39882;SDS011;55824;52.220;21.040;2023-08-06T07:38:48;5.32;;;4.03;;
39882;SDS011;55824;52.220;21.040;2023-08-06T07:41:20;5.47;;;4.22;;
39882;SDS011;55824;52.220;21.040;2023-08-06T07:43:46;5.05;;;3.60;;
39882;SDS011;55824;52.220;21.040;2023-08-06T07:46:12;5.40;;;4.50;;
39882;SDS011;55824;52.220;21.040;2023-08-06T07:48:38;5.90;;;4.78;;
39882;SDS011;55824;52.220;21.040;2023-08-06T07:51:04;4.53;;;4.00;;
39882;SDS011;55824;52.220;21.040;2023-08-06T07:53:30;4.75;;;4.25;;
39882;SDS011;55824;52.220;21.040;2023-08-06T07:55:56;5.18;;;3.95;;
39882;SDS011;55824;52.220;21.040;2023-08-06T07:58:23;4.38;;;3.90;;
39882;SDS011;55824;52.220;21.040;2023-08-06T08:00:50;8.38;;;4.07;;
39882;SDS011;55824;52.220;21.040;2023-08-06T08:03:16;5.72;;;3.85;;
39882;SDS011;55824;52.220;21.040;2023-08-06T08:05:42;5.75;;;4.25;;
39882;SDS011;55824;52.220;21.040;2023-08-06T08:08:09;5.13;;;3.90;;
39882;SDS011;55824;52.220;21.040;2023-08-06T08:10:35;4.88;;;3.83;;
39882;SDS011;55824;52.220;21.040;2023-08-06T08:13:03;7.88;;;4.03;;
39882;SDS011;55824;52.220;21.040;2023-08-06T08:15:29;7.10;;;4.72;;
39882;SDS011;55824;52.220;21.040;2023-08-06T08:17:55;5.35;;;4.28;;
39882;SDS011;55824;52.220;21.040;2023-08-06T08:20:21;5.65;;;4.38;;
39882;SDS011;55824;52.220;21.040;2023-08-06T08:22:47;5.65;;;4.30;;
39882;SDS011;55824;52.220;21.040;2023-08-06T08:25:13;5.03;;;4.30;;
39882;SDS011;55824;52.220;21.040;2023-08-06T08:27:39;6.30;;;4.40;;
39882;SDS011;55824;52.220;21.040;2023-08-06T08:30:05;5.72;;;4.07;;
39882;SDS011;55824;52.220;21.040;2023-08-06T08:32:31;6.70;;;3.97;;
39882;SDS011;55824;52.220;21.040;2023-08-06T08:34:57;5.03;;;4.03;;
39882;SDS011;55824;52.220;21.040;2023-08-06T08:37:23;5.25;;;3.97;;
39882;SDS011;55824;52.220;21.040;2023-08-06T08:39:50;5.07;;;4.18;;
39882;SDS011;55824;52.220;21.040;2023-08-06T08:42:17;6.22;;;4.07;;
39882;SDS011;55824;52.220;21.040;2023-08-06T08:44:43;6.60;;;4.93;;
39882;SDS011;55824;52.220;21.040;2023-08-06T08:47:10;4.50;;;3.95;;
39882;SDS011;55824;52.220;21.040;2023-08-06T08:49:36;6.55;;;4.72;;
39882;SDS011;55824;52.220;21.040;2023-08-06T08:52:03;4.65;;;3.70;;
39882;SDS011;55824;52.220;21.040;2023-08-06T08:54:34;5.53;;;3.90;;
39882;SDS011;55824;52.220;21.040;2023-08-06T08:57:00;5.03;;;4.10;;
39882;SDS011;55824;52.220;21.040;2023-08-06T08:59:27;4.55;;;4.07;;
39882;SDS011;55824;52.220;21.040;2023-08-06T09:01:53;5.70;;;4.40;;
39882;SDS011;55824;52.220;21.040;2023-08-06T09:04:20;6.47;;;4.32;;
39882;SDS011;55824;52.220;21.040;2023-08-06T09:06:47;5.30;;;4.15;;
39882;SDS011;55824;52.220;21.040;2023-08-06T09:09:16;6.82;;;4.20;;
39882;SDS011;55824;52.220;21.040;2023-08-06T09:11:43;5.93;;;4.15;;
39882;SDS011;55824;52.220;21.040;2023-08-06T09:14:10;6.90;;;4.60;;
39882;SDS011;55824;52.220;21.040;2023-08-06T09:16:36;5.82;;;4.63;;
39882;SDS011;55824;52.220;21.040;2023-08-06T09:19:11;6.82;;;4.45;;
39882;SDS011;55824;52.220;21.040;2023-08-06T09:21:38;5.53;;;4.20;;
39882;SDS011;55824;52.220;21.040;2023-08-06T09:24:08;4.53;;;3.88;;
39882;SDS011;55824;52.220;21.040;2023-08-06T09:26:36;5.80;;;4.60;;
39882;SDS011;55824;52.220;21.040;2023-08-06T09:29:04;7.30;;;5.05;;
39882;SDS011;55824;52.220;21.040;2023-08-06T09:31:40;6.10;;;5.07;;
39882;SDS011;55824;52.220;21.040;2023-08-06T09:34:10;5.40;;;4.43;;
39882;SDS011;55824;52.220;21.040;2023-08-06T09:36:47;5.20;;;4.13;;
39882;SDS011;55824;52.220;21.040;2023-08-06T09:39:14;7.03;;;4.70;;
39882;SDS011;55824;52.220;21.040;2023-08-06T09:41:41;7.55;;;4.93;;
39882;SDS011;55824;52.220;21.040;2023-08-06T09:44:16;5.45;;;4.30;;
39882;SDS011;55824;52.220;21.040;2023-08-06T09:46:43;5.05;;;4.30;;
39882;SDS011;55824;52.220;21.040;2023-08-06T09:49:12;6.88;;;4.82;;
39882;SDS011;55824;52.220;21.040;2023-08-06T09:51:38;6.07;;;4.68;;
39882;SDS011;55824;52.220;21.040;2023-08-06T09:54:04;8.80;;;4.78;;
39882;SDS011;55824;52.220;21.040;2023-08-06T09:56:31;7.68;;;4.38;;
39882;SDS011;55824;52.220;21.040;2023-08-06T09:59:02;5.45;;;4.82;;
39882;SDS011;55824;52.220;21.040;2023-08-06T10:01:29;5.90;;;4.45;;
39882;SDS011;55824;52.220;21.040;2023-08-06T10:03:55;5.85;;;4.85;;
39882;SDS011;55824;52.220;21.040;2023-08-06T10:06:23;5.70;;;4.07;;
39882;SDS011;55824;52.220;21.040;2023-08-06T10:08:49;5.05;;;4.55;;
39882;SDS011;55824;52.220;21.040;2023-08-06T10:11:15;6.82;;;4.38;;
39882;SDS011;55824;52.220;21.040;2023-08-06T10:13:43;6.47;;;4.43;;
39882;SDS011;55824;52.220;21.040;2023-08-06T10:16:09;5.95;;;4.10;;
39882;SDS011;55824;52.220;21.040;2023-08-06T10:18:36;5.38;;;4.38;;
39882;SDS011;55824;52.220;21.040;2023-08-06T10:21:04;5.57;;;4.15;;
39882;SDS011;55824;52.220;21.040;2023-08-06T10:25:59;5.22;;;4.28;;
39882;SDS011;55824;52.220;21.040;2023-08-06T10:28:33;4.60;;;3.70;;
39882;SDS011;55824;52.220;21.040;2023-08-06T10:31:01;5.85;;;4.63;;
39882;SDS011;55824;52.220;21.040;2023-08-06T10:33:42;6.03;;;4.60;;
39882;SDS011;55824;52.220;21.040;2023-08-06T10:36:08;5.18;;;4.07;;
39882;SDS011;55824;52.220;21.040;2023-08-06T10:38:35;5.75;;;4.35;;
39882;SDS011;55824;52.220;21.040;2023-08-06T10:41:02;5.38;;;4.10;;
39882;SDS011;55824;52.220;21.040;2023-08-06T10:43:32;5.68;;;4.43;;
39882;SDS011;55824;52.220;21.040;2023-08-06T10:46:00;5.45;;;4.15;;
39882;SDS011;55824;52.220;21.040;2023-08-06T10:48:29;5.00;;;4.50;;
39882;SDS011;55824;52.220;21.040;2023-08-06T10:50:56;5.40;;;4.47;;
39882;SDS011;55824;52.220;21.040;2023-08-06T10:53:22;5.10;;;4.18;;
39882;SDS011;55824;52.220;21.040;2023-08-06T10:55:48;6.90;;;4.43;;
39882;SDS011;55824;52.220;21.040;2023-08-06T10:58:15;5.85;;;4.13;;
39882;SDS011;55824;52.220;21.040;2023-08-06T11:00:44;5.97;;;4.60;;
39882;SDS011;55824;52.220;21.040;2023-08-06T11:03:10;5.25;;;4.35;;
39882;SDS011;55824;52.220;21.040;2023-08-06T11:05:36;6.68;;;4.63;;
39882;SDS011;55824;52.220;21.040;2023-08-06T11:08:02;6.45;;;4.50;;
39882;SDS011;55824;52.220;21.040;2023-08-06T11:10:28;7.03;;;4.20;;
39882;SDS011;55824;52.220;21.040;2023-08-06T11:12:54;5.68;;;4.40;;
39882;SDS011;55824;52.220;21.040;2023-08-06T11:15:20;5.95;;;4.05;;
39882;SDS011;55824;52.220;21.040;2023-08-06T11:17:46;5.53;;;4.20;;
39882;SDS011;55824;52.220;21.040;2023-08-06T11:20:13;5.47;;;4.60;;
39882;SDS011;55824;52.220;21.040;2023-08-06T11:22:39;5.60;;;4.30;;
39882;SDS011;55824;52.220;21.040;2023-08-06T11:25:06;6.97;;;4.68;;
39882;SDS011;55824;52.220;21.040;2023-08-06T11:27:32;5.35;;;4.13;;
39882;SDS011;55824;52.220;21.040;2023-08-06T11:29:58;6.85;;;4.35;;
39882;SDS011;55824;52.220;21.040;2023-08-06T11:32:24;5.38;;;4.10;;
39882;SDS011;55824;52.220;21.040;2023-08-06T11:34:52;5.03;;;4.22;;
39882;SDS011;55824;52.220;21.040;2023-08-06T11:37:20;5.25;;;4.28;;
39882;SDS011;55824;52.220;21.040;2023-08-06T11:39:47;7.40;;;3.90;;
39882;SDS011;55824;52.220;21.040;2023-08-06T11:42:14;5.45;;;4.32;;
39882;SDS011;55824;52.220;21.040;2023-08-06T11:44:40;6.60;;;4.70;;
39882;SDS011;55824;52.220;21.040;2023-08-06T11:47:11;4.88;;;4.20;;
39882;SDS011;55824;52.220;21.040;2023-08-06T11:52:13;5.30;;;4.30;;
39882;SDS011;55824;52.220;21.040;2023-08-06T11:54:39;4.75;;;4.25;;
39882;SDS011;55824;52.220;21.040;2023-08-06T11:57:05;5.13;;;4.10;;
39882;SDS011;55824;52.220;21.040;2023-08-06T11:59:31;4.68;;;3.90;;
39882;SDS011;55824;52.220;21.040;2023-08-06T12:01:57;4.78;;;4.20;;
39882;SDS011;55824;52.220;21.040;2023-08-06T12:04:23;4.90;;;3.92;;
39882;SDS011;55824;52.220;21.040;2023-08-06T12:06:49;5.57;;;4.80;;
39882;SDS011;55824;52.220;21.040;2023-08-06T12:09:15;5.00;;;4.18;;
39882;SDS011;55824;52.220;21.040;2023-08-06T12:11:41;6.85;;;4.15;;
39882;SDS011;55824;52.220;21.040;2023-08-06T12:14:07;4.90;;;4.28;;
39882;SDS011;55824;52.220;21.040;2023-08-06T12:16:33;6.28;;;4.15;;
39882;SDS011;55824;52.220;21.040;2023-08-06T12:19:01;5.10;;;4.25;;
39882;SDS011;55824;52.220;21.040;2023-08-06T12:21:27;6.30;;;4.05;;
39882;SDS011;55824;52.220;21.040;2023-08-06T12:23:53;6.47;;;4.43;;
39882;SDS011;55824;52.220;21.040;2023-08-06T12:26:19;5.13;;;4.35;;
39882;SDS011;55824;52.220;21.040;2023-08-06T12:28:45;5.03;;;4.00;;
39882;SDS011;55824;52.220;21.040;2023-08-06T12:31:11;4.95;;;4.18;;
39882;SDS011;55824;52.220;21.040;2023-08-06T12:33:37;5.05;;;4.10;;
39882;SDS011;55824;52.220;21.040;2023-08-06T12:36:03;5.65;;;4.10;;
39882;SDS011;55824;52.220;21.040;2023-08-06T12:38:29;4.57;;;3.80;;
39882;SDS011;55824;52.220;21.040;2023-08-06T12:43:24;4.70;;;3.80;;
39882;SDS011;55824;52.220;21.040;2023-08-06T12:45:50;6.05;;;4.47;;
39882;SDS011;55824;52.220;21.040;2023-08-06T12:48:16;5.30;;;4.57;;
39882;SDS011;55824;52.220;21.040;2023-08-06T12:50:42;5.60;;;4.57;;
39882;SDS011;55824;52.220;21.040;2023-08-06T12:53:08;6.25;;;4.60;;
39882;SDS011;55824;52.220;21.040;2023-08-06T12:55:34;5.20;;;4.70;;
39882;SDS011;55824;52.220;21.040;2023-08-06T12:58:00;5.35;;;4.60;;
39882;SDS011;55824;52.220;21.040;2023-08-06T13:00:26;5.13;;;4.03;;
39882;SDS011;55824;52.220;21.040;2023-08-06T13:02:52;5.45;;;4.40;;
39882;SDS011;55824;52.220;21.040;2023-08-06T13:05:18;6.18;;;4.38;;
39882;SDS011;55824;52.220;21.040;2023-08-06T13:07:44;4.35;;;3.78;;
39882;SDS011;55824;52.220;21.040;2023-08-06T13:10:10;5.07;;;4.22;;
39882;SDS011;55824;52.220;21.040;2023-08-06T13:12:36;5.22;;;4.20;;
39882;SDS011;55824;52.220;21.040;2023-08-06T13:15:02;4.95;;;4.45;;
39882;SDS011;55824;52.220;21.040;2023-08-06T13:17:29;5.03;;;4.28;;
39882;SDS011;55824;52.220;21.040;2023-08-06T13:19:55;6.47;;;3.90;;
39882;SDS011;55824;52.220;21.040;2023-08-06T13:22:21;5.15;;;4.30;;
39882;SDS011;55824;52.220;21.040;2023-08-06T13:24:47;4.38;;;3.95;;
39882;SDS011;55824;52.220;21.040;2023-08-06T13:27:13;6.70;;;4.00;;
39882;SDS011;55824;52.220;21.040;2023-08-06T13:29:39;5.60;;;4.10;;
39882;SDS011;55824;52.220;21.040;2023-08-06T13:32:05;5.07;;;4.28;;
39882;SDS011;55824;52.220;21.040;2023-08-06T13:34:31;5.43;;;4.20;;
39882;SDS011;55824;52.220;21.040;2023-08-06T13:36:57;5.10;;;4.50;;
39882;SDS011;55824;52.220;21.040;2023-08-06T13:39:23;5.13;;;4.30;;
39882;SDS011;55824;52.220;21.040;2023-08-06T13:41:49;4.88;;;4.30;;
39882;SDS011;55824;52.220;21.040;2023-08-06T13:44:14;4.68;;;4.18;;
39882;SDS011;55824;52.220;21.040;2023-08-06T13:46:41;4.90;;;4.03;;
39882;SDS011;55824;52.220;21.040;2023-08-06T13:49:07;5.13;;;4.15;;
39882;SDS011;55824;52.220;21.040;2023-08-06T13:51:33;4.40;;;3.95;;
39882;SDS011;55824;52.220;21.040;2023-08-06T13:54:00;4.70;;;3.97;;
39882;SDS011;55824;52.220;21.040;2023-08-06T13:56:26;4.78;;;4.18;;
39882;SDS011;55824;52.220;21.040;2023-08-06T13:58:54;4.30;;;3.90;;
39882;SDS011;55824;52.220;21.040;2023-08-06T14:01:20;5.03;;;4.00;;
39882;SDS011;55824;52.220;21.040;2023-08-06T14:03:46;5.45;;;4.38;;
39882;SDS011;55824;52.220;21.040;2023-08-06T14:06:12;5.10;;;4.20;;
39882;SDS011;55824;52.220;21.040;2023-08-06T14:08:38;4.80;;;4.30;;
39882;SDS011;55824;52.220;21.040;2023-08-06T14:11:05;5.05;;;3.90;;
39882;SDS011;55824;52.220;21.040;2023-08-06T14:13:31;4.40;;;3.83;;
39882;SDS011;55824;52.220;21.040;2023-08-06T14:15:57;5.30;;;3.95;;
39882;SDS011;55824;52.220;21.040;2023-08-06T14:18:24;4.55;;;3.83;;
39882;SDS011;55824;52.220;21.040;2023-08-06T14:20:50;5.18;;;4.07;;
39882;SDS011;55824;52.220;21.040;2023-08-06T14:23:16;5.25;;;4.50;;
39882;SDS011;55824;52.220;21.040;2023-08-06T14:25:42;4.63;;;4.13;;
39882;SDS011;55824;52.220;21.040;2023-08-06T14:28:08;4.57;;;3.97;;
39882;SDS011;55824;52.220;21.040;2023-08-06T14:30:35;6.00;;;4.10;;
39882;SDS011;55824;52.220;21.040;2023-08-06T14:33:02;5.60;;;4.10;;
39882;SDS011;55824;52.220;21.040;2023-08-06T14:35:28;5.40;;;4.03;;
39882;SDS011;55824;52.220;21.040;2023-08-06T14:37:54;5.93;;;3.90;;
39882;SDS011;55824;52.220;21.040;2023-08-06T14:40:20;5.05;;;4.07;;
39882;SDS011;55824;52.220;21.040;2023-08-06T14:42:46;4.93;;;4.07;;
39882;SDS011;55824;52.220;21.040;2023-08-06T14:45:12;4.95;;;4.18;;